Dati Storici

Data ora Umidita' aria (%) Temperatura aria (°C) Rad globale (W/m²) Gonioanemometro (°) Tacoanemometro (m/s) Pioggia (mm)
15-06-2020 01:30 97.7 % 18.933 -65.784 -0.009 0 0
15-06-2020 01:20 97.6 % 18.957 -48.015 -0.006 0 0
15-06-2020 01:10 97.6 % 18.967 -77.729 -0.006 0 0
15-06-2020 01:00 97.6 % 19.026 -76.581 0.189 0 0
15-06-2020 00:50 97 % 19.4 -46.762 -0.008 0 0
15-06-2020 00:40 97.4 % 19.714 -79.96 -0.013 0 0
15-06-2020 00:30 97.6 % 19.896 -68.478 -0.012 0 0
15-06-2020 00:20 95.2 % 19.93 -75.981 -0.012 0 0
15-06-2020 00:10 93.3 % 20.12 -72.726 -0.011 0 0
15-06-2020 00:00 93.5 % 20.059 -41.008 -0.011 0 0
14-06-2020 23:50 94.3 % 19.97 -54.118 -0.012 0 0
14-06-2020 23:40 94.7 % 19.922 -46.717 -0.01 0 0
14-06-2020 23:30 94.1 % 19.776 -75.127 -0.012 0 0
14-06-2020 23:20 92.8 % 19.803 -72.844 -0.012 0 0
14-06-2020 23:10 94.2 % 19.625 -36.533 -0.01 0 0
14-06-2020 23:00 87.6 % 19.907 -70.88 -0.011 0 0
14-06-2020 22:50 84 % 20.582 -62.532 -0.015 0 0
14-06-2020 22:40 82.9 % 20.571 -70.409 -0.013 0 0
14-06-2020 22:30 81.2 % 20.886 -65.422 -0.015 0 0
14-06-2020 22:20 79.5 % 20.899 -64.82 0.369 0 0

I dati sono presentati in modo automatico a scopo informativo. In seguito a verifica i dati possono subire modifiche o essere invalidati e non riportati negli archivi definitivi.